Latest Weather Observations for Wilcannia Airport

IDN60801

Issued at 6:33 am EST Sunday 25 September 2016 (issued every 30 minutes, with the page automatically refreshed every 10 minutes)

About weather observations | Map of weather stations | Latest weather observations for NSW | Other Formats
Station Details ID: 046012 Name: WILCANNIA AERODROME AWS Lat: -31.52 Lon: 143.38 Height: 94.3 m
Data from the previous 72 hours. | See also: Recent months at Wilcannia Airport
Date/Time
EST
Temp
°C
App
Temp
°C
Dew
Point
°C
Rel
Hum
%
Delta-T
°C
Wind Press
QNH
hPa
Press
MSL
hPa
Rain since
9am
mm
Dir  Spd
km/h
Gust
km/h
Spd
kts
Gust
kts
25/06:30am 10.2 5.3 8.3 88 0.9 SSW 24 32 13 17 1011.8 1011.7 10.8
25/06:00am 10.6 5.3 8.5 87 1.0 SSW 26 35 14 19 1011.6 1011.5 10.6
25/05:30am 11.4 5.5 9.0 85 1.2 SSW 30 44 16 24 1011.2 1011.1 10.6
25/05:00am 11.7 6.5 10.1 90 0.8 SW 28 44 15 24 1010.6 1010.5 10.6
25/04:30am 11.5 7.5 10.4 93 0.6 SW 22 28 12 15 1010.0 1009.9 10.6
25/04:00am 11.0 8.5 9.8 92 0.6 SW 13 17 7 9 1009.8 1009.7 10.6
25/03:30am 11.6 8.9 10.3 92 0.7 SW 15 19 8 10 1009.5 1009.4 10.6
25/03:00am 11.7 9.0 10.4 92 0.7 SW 15 20 8 11 1009.2 1009.1 10.6
25/02:30am 11.9 8.5 10.6 92 0.7 SSW 19 26 10 14 1008.7 1008.6 10.6
25/02:00am 12.7 7.5 11.6 93 0.6 SW 30 41 16 22 1008.8 1008.7 10.4
25/01:43am 12.9 7.8 11.8 93 0.6 WSW 30 48 16 26 1009.1 1009.0 10.2
25/01:33am 13.0 10.5 12.2 95 0.4 W 17 43 9 23 1009.2 1009.1 7.4
25/01:30am 12.9 11.5 12.1 95 0.4 WNW 11 20 6 11 1008.7 1008.6 5.4
25/01:00am 13.0 11.9 12.1 94 0.5 NW 9 9 5 5 1008.4 1008.3 5.4
25/12:30am 13.1 12.5 12.2 94 0.5 WNW 7 9 4 5 1008.4 1008.3 5.4
25/12:00am 13.2 13.9 12.3 94 0.5 CALM 0 0 0 0 1008.4 1008.3 5.4
 
Date/Time
EST
Temp
°C
App
Temp
°C
Dew
Point
°C
Rel
Hum
%
Delta-T
°C
Wind Press
QNH
hPa
Press
MSL
hPa
Rain since
9am
mm
Dir  Spd
km/h
Gust
km/h
Spd
kts
Gust
kts
24/11:30pm 13.1 13.7 12.0 93 0.6 CALM 0 0 0 0 1008.3 1008.2 5.2
24/11:00pm 13.2 13.1 12.1 93 0.6 S 4 9 2 5 1008.4 1008.3 5.2
24/10:30pm 13.1 12.6 12.0 93 0.6 ENE 6 7 3 4 1008.2 1008.1 5.2
24/10:00pm 13.2 13.9 12.1 93 0.6 CALM 0 0 0 0 1008.3 1008.2 5.2
24/09:30pm 13.2 12.5 12.1 93 0.6 ENE 7 11 4 6 1008.4 1008.3 5.2
24/09:00pm 13.1 12.3 11.8 92 0.7 SSE 7 9 4 5 1008.6 1008.5 5.2
24/08:30pm 13.4 12.9 12.1 92 0.7 NNW 6 7 3 4 1009.0 1008.9 4.8
24/08:00pm 13.5 12.9 12.2 92 0.7 NW 7 13 4 7 1008.9 1008.8 4.6
24/07:30pm 13.5 12.7 11.7 89 1.0 NE 7 11 4 6 1008.3 1008.2 4.0
24/07:00pm 13.9 12.8 12.1 89 1.0 ESE 9 11 5 6 1007.6 1007.5 3.8
24/06:30pm 14.2 14.1 12.2 88 1.1 ENE 4 7 2 4 1007.7 1007.6 3.4
24/06:00pm 14.4 13.9 12.6 89 1.0 NE 7 9 4 5 1007.5 1007.4 3.0
24/05:30pm 14.8 14.0 13.0 89 1.0 NE 9 11 5 6 1007.3 1007.2 2.4
24/05:00pm 14.7 13.3 12.2 85 1.4 N 11 15 6 8 1007.7 1007.6 2.2
24/04:30pm 15.9 14.2 12.3 79 2.0 WSW 13 15 7 8 1007.6 1007.5 0.6
24/04:00pm 16.7 13.9 11.4 71 2.9 SW 17 20 9 11 1007.3 1007.2 0.2
24/03:30pm 19.1 17.4 9.9 55 4.9 NE 9 15 5 8 1006.1 1005.9 0.0
24/03:00pm 20.3 16.7 6.6 41 7.0 N 15 22 8 12 1006.5 1006.3 0.0
24/02:30pm 20.3 17.0 6.3 40 7.0 N 13 20 7 11 1006.4 1006.2 0.0
24/02:00pm 20.3 16.8 7.0 42 6.8 NW 15 22 8 12 1008.1 1008.0 0.0
24/01:30pm 20.2 15.7 6.9 42 6.8 NW 20 30 11 16 1009.1 1009.0 0.0
24/01:00pm 21.2 16.2 4.7 34 8.1 NW 20 26 11 14 1009.4 1009.3 0.0
24/12:30pm 20.9 15.2 4.9 35 7.9 NW 24 33 13 18 1009.9 1009.8 0.0
24/12:00pm 21.6 16.0 5.5 35 8.1 NNW 24 35 13 19 1009.5 1009.4 0.0
24/11:30am 21.8 16.8 4.8 33 8.4 N 20 32 11 17 1009.4 1009.3 0.0
24/11:00am 21.5 17.2 5.4 35 8.0 N 17 28 9 15 1009.6 1009.5 0.0
24/10:30am 20.8 16.9 7.1 41 7.0 N 17 24 9 13 1010.1 1010.0 0.0
24/10:00am 19.9 15.0 7.0 43 6.6 N 22 28 12 15 1010.7 1010.6 0.0
24/09:30am 18.1 14.6 7.2 49 5.5 NNE 15 20 8 11 1010.8 1010.7 0.0
24/09:00am 17.4 14.3 8.8 57 4.5 NNE 15 20 8 11 1010.8 1010.7 0.0
24/08:30am 14.8 12.2 9.2 69 2.9 NE 13 17 7 9 1010.9 1010.8 0.0
24/08:00am 12.9 10.1 8.4 74 2.2 NE 13 17 7 9 1011.2 1011.1 0.0
24/07:30am 10.3 7.6 7.4 82 1.4 NE 11 15 6 8 1011.1 1011.0 0.0
24/07:00am 8.5 5.3 6.8 89 0.8 ENE 13 15 7 8 1010.4 1010.3 0.0
24/06:30am 6.8 2.9 5.4 91 0.6 ENE 15 17 8 9 1010.1 1010.0 0.0
24/06:00am 6.4 2.5 5.2 92 0.5 NE 15 17 8 9 1010.1 1010.0 0.0
24/05:30am 6.4 2.8 5.0 91 0.6 ENE 13 17 7 9 1009.6 1009.5 0.0
24/05:00am 6.7 2.8 5.3 91 0.6 ENE 15 17 8 9 1009.4 1009.3 0.0
24/04:30am 6.6 3.0 5.1 90 0.7 ENE 13 15 7 8 1009.6 1009.5 0.0
24/04:00am 7.2 3.3 5.5 89 0.8 ENE 15 17 8 9 1009.5 1009.4 0.0
24/03:30am 7.6 3.8 5.6 87 0.9 ENE 15 17 8 9 1009.9 1009.8 0.0
24/03:00am 7.3 3.5 5.6 89 0.8 ENE 15 17 8 9 1010.3 1010.2 0.0
24/02:30am 7.7 4.3 5.7 87 0.9 ENE 13 15 7 8 1010.4 1010.3 0.0
24/02:00am 8.1 5.1 5.9 86 1.0 ENE 11 13 6 7 1010.9 1010.8 0.0
24/01:30am 7.4 5.1 5.5 88 0.9 NNE 7 9 4 5 1011.3 1011.2 0.0
24/01:00am 7.3 4.6 5.4 88 0.8 N 9 13 5 7 1011.5 1011.4 0.0
24/12:30am 8.3 5.2 5.6 83 1.2 N 11 13 6 7 1011.8 1011.7 0.0
24/12:00am 8.7 6.5 6.2 84 1.2 NNE 7 11 4 6 1011.7 1011.6 0.0
 
Date/Time
EST
Temp
°C
App
Temp
°C
Dew
Point
°C
Rel
Hum
%
Delta-T
°C
Wind Press
QNH
hPa
Press
MSL
hPa
Rain since
9am
mm
Dir  Spd
km/h
Gust
km/h
Spd
kts
Gust
kts
23/11:30pm 9.3 6.4 6.4 82 1.3 NNE 11 17 6 9 1011.3 1011.2 0.0
23/11:00pm 9.5 6.6 6.4 81 1.4 NNE 11 13 6 7 1011.3 1011.2 0.0
23/10:30pm 9.6 6.7 6.5 81 1.4 NNE 11 13 6 7 1011.5 1011.4 0.0
23/10:00pm 10.3 7.4 6.6 78 1.7 NNE 11 13 6 7 1011.6 1011.5 0.0
23/09:30pm 10.9 8.1 6.8 76 1.9 NE 11 13 6 7 1011.7 1011.6 0.0
23/09:00pm 11.2 8.3 6.3 72 2.3 NE 11 13 6 7 1011.8 1011.7 0.0
23/08:30pm 11.5 8.4 7.4 76 2.0 NE 13 13 7 7 1011.9 1011.8 0.0
23/08:00pm 11.1 9.0 6.8 75 2.0 NNE 7 9 4 5 1011.9 1011.8 0.0
23/07:30pm 13.1 10.6 6.7 65 3.1 N 9 11 5 6 1011.9 1011.8 0.0
23/07:00pm 13.0 10.9 6.8 66 3.0 N 7 9 4 5 1011.7 1011.6 0.0
23/06:30pm 15.4 12.6 5.0 50 4.9 N 9 11 5 6 1011.7 1011.6 0.0
23/06:00pm 17.6 14.4 5.2 44 6.0 NE 11 13 6 7 1011.6 1011.5 0.0
23/05:30pm 18.9 15.0 3.5 36 7.3 NNE 13 19 7 10 1011.4 1011.3 0.0
23/05:00pm 19.4 16.0 4.0 36 7.4 NNE 11 19 6 10 1011.3 1011.2 0.0
23/04:30pm 19.5 15.9 2.8 33 7.8 NNE 11 19 6 10 1011.5 1011.4 0.0
23/04:00pm 19.6 16.0 2.9 33 7.8 NE 11 19 6 10 1011.7 1011.6 0.0
23/03:30pm 19.9 17.3 4.4 36 7.5 NW 7 17 4 9 1012.0 1011.9 0.0
23/03:00pm 19.4 16.5 4.7 38 7.1 W 9 13 5 7 1012.5 1012.4 0.0
23/02:30pm 19.1 16.2 4.5 38 7.0 NNW 9 15 5 8 1013.0 1012.8 0.0
23/02:00pm 18.5 15.6 4.7 40 6.6 NNE 9 17 5 9 1013.5 1013.3 0.0
23/01:30pm 18.1 15.6 3.6 38 6.8 NW 6 13 3 7 1014.0 1013.8 0.0
23/01:00pm 17.5 14.9 4.1 41 6.3 WNW 7 13 4 7 1014.4 1014.2 0.0
23/12:30pm 17.3 15.0 5.6 46 5.7 N 7 15 4 8 1014.9 1014.7 0.0
23/12:00pm 16.8 14.1 5.7 48 5.4 NNW 9 19 5 10 1015.4 1015.2 0.0
23/11:30am 16.1 13.0 5.4 49 5.1 NW 11 17 6 9 1015.8 1015.6 0.0
23/11:00am 15.9 14.0 7.4 57 4.2 WNW 7 15 4 8 1016.5 1016.4 0.0
23/10:30am 15.3 12.7 6.1 54 4.5 WSW 9 15 5 8 1016.9 1016.8 0.0
23/10:00am 14.9 12.4 6.5 57 4.1 N 9 15 5 8 1017.4 1017.3 0.0
23/09:30am 14.1 12.1 6.9 62 3.5 ENE 7 13 4 7 1017.5 1017.4 0.0
23/09:00am 13.2 11.2 7.2 67 2.9 ENE 7 11 4 6 1017.6 1017.5 0.0
23/08:30am 11.7 10.7 7.4 75 2.1 ESE 2 7 1 4 1017.6 1017.5 0.0
23/08:00am 9.1 7.2 6.9 86 1.0 SW 6 7 3 4 1017.8 1017.7 0.0
23/07:30am 7.6 5.6 6.1 90 0.7 WSW 6 7 3 4 1017.4 1017.3 0.0
23/07:00am 5.5 3.0 4.9 96 0.3 W 7 9 4 5 1017.1 1017.0 0.0
23/06:30am 3.6 0.7 2.7 94 0.4 WSW 7 7 4 4 1016.9 1016.8 0.0
23/06:00am 3.8 1.0 2.9 94 0.4 WSW 7 9 4 5 1016.8 1016.7 0.0
23/05:30am 3.9 1.1 3.0 94 0.4 SW 7 7 4 4 1016.6 1016.5 0.0
23/05:00am 3.7 2.1 2.7 93 0.4 CALM 0 6 0 3 1016.2 1016.1 0.0
23/04:30am 4.4 1.6 3.2 92 0.5 SW 7 9 4 5 1016.1 1015.9 0.0
23/04:00am 5.0 1.9 3.8 92 0.5 WSW 9 11 5 6 1016.5 1016.4 0.0
23/03:30am 5.1 2.0 3.8 91 0.5 WSW 9 9 5 5 1016.6 1016.5 0.0
23/03:00am 5.3 1.9 4.0 91 0.6 WSW 11 11 6 6 1016.8 1016.7 0.0
23/02:30am 5.5 2.5 4.3 92 0.5 WSW 9 9 5 5 1016.8 1016.7 0.0
23/02:00am 5.6 2.6 4.2 91 0.6 WSW 9 11 5 6 1017.2 1017.1 0.0
23/01:30am 5.8 2.5 4.4 91 0.6 WSW 11 11 6 6 1017.5 1017.4 0.0
23/01:00am 6.2 2.6 4.8 91 0.6 WSW 13 13 7 7 1017.8 1017.7 0.0
23/12:30am 6.3 3.0 4.8 90 0.7 WSW 11 11 6 6 1017.9 1017.8 0.0
23/12:00am 6.6 3.4 5.1 90 0.7 WSW 11 13 6 7 1017.9 1017.8 0.0
 
Date/Time
EST
Temp
°C
App
Temp
°C
Dew
Point
°C
Rel
Hum
%
Delta-T
°C
Wind Press
QNH
hPa
Press
MSL
hPa
Rain since
9am
mm
Dir  Spd
km/h
Gust
km/h
Spd
kts
Gust
kts
22/11:30pm 6.5 3.3 5.0 90 0.7 W 11 13 6 7 1018.0 1017.9 0.0
22/11:00pm 6.6 3.9 5.4 92 0.5 SW 9 9 5 5 1017.8 1017.7 0.0
22/10:30pm 6.1 3.6 4.6 90 0.7 SW 7 9 4 5 1017.8 1017.7 0.0
22/10:00pm 6.7 4.3 5.2 90 0.7 SW 7 9 4 5 1018.1 1018.0 0.0
22/09:30pm 7.1 4.7 5.1 87 0.9 SW 7 9 4 5 1018.4 1018.3 0.0
22/09:00pm 7.3 4.5 5.1 86 1.0 WSW 9 9 5 5 1018.6 1018.5 0.0
22/08:30pm 8.2 5.5 5.5 83 1.2 WSW 9 9 5 5 1018.6 1018.5 0.0
22/08:00pm 8.7 6.4 5.6 81 1.4 SW 7 9 4 5 1018.6 1018.5 0.0
22/07:30pm 9.2 6.5 5.4 77 1.7 SW 9 11 5 6 1018.5 1018.4 0.0
22/07:00pm 10.6 7.8 5.2 69 2.5 SW 9 11 5 6 1018.2 1018.1 0.0
22/06:30pm 12.1 8.5 4.8 61 3.4 SW 13 17 7 9 1018.0 1017.9 0.0
22/06:00pm 13.8 9.5 5.2 56 4.0 SW 17 22 9 12 1017.7 1017.6 0.0
22/05:30pm 14.7 9.7 4.7 51 4.7 SSW 20 26 11 14 1017.7 1017.6 0.0
22/05:00pm 15.6 10.7 4.3 47 5.3 SW 19 26 10 14 1017.5 1017.4 0.0
22/04:30pm 15.8 11.0 4.8 48 5.2 SW 19 26 10 14 1017.3 1017.2 0.0
22/04:00pm 16.3 11.4 5.3 48 5.3 WSW 20 30 11 16 1017.3 1017.2 0.0
22/03:30pm 16.2 11.6 5.5 49 5.2 WSW 19 24 10 13 1017.1 1017.0 0.0
22/03:00pm 16.2 12.3 5.5 49 5.1 SW 15 22 8 12 1017.3 1017.2 0.0
22/02:30pm 15.9 12.1 5.8 51 4.9 SW 15 28 8 15 1017.5 1017.4 0.0
22/02:00pm 15.8 11.8 6.8 55 4.4 SW 17 22 9 12 1017.8 1017.7 0.0
22/01:30pm 14.8 10.4 4.5 50 4.8 SSW 17 26 9 14 1018.2 1018.1 0.0
22/01:00pm 15.3 11.7 6.8 57 4.2 SW 15 28 8 15 1018.4 1018.3 0.0
22/12:30pm 14.4 10.1 5.2 54 4.3 SSW 17 28 9 15 1018.7 1018.6 0.0
22/12:00pm 13.7 8.8 5.3 57 3.9 SW 20 30 11 16 1019.0 1018.9 0.0
22/11:30am 13.7 9.4 5.3 57 4.0 SW 17 28 9 15 1019.2 1019.1 0.0
22/11:00am 13.0 8.7 5.4 60 3.6 SSW 17 24 9 13 1019.4 1019.3 0.0
22/10:30am 12.9 8.0 5.3 60 3.6 SSW 20 28 11 15 1019.6 1019.5 0.0
22/10:00am 12.2 7.4 5.4 63 3.2 SSW 20 32 11 17 1019.8 1019.7 0.0
22/09:30am 11.9 7.1 5.8 66 2.9 SW 20 28 11 15 1019.7 1019.6 0.0
22/09:00am 11.9 6.3 5.5 65 3.0 SSW 24 35 13 19 1019.6 1019.5 0.4
22/08:30am 11.0 5.3 5.1 67 2.7 SW 24 35 13 19 1019.4 1019.3 0.4
22/08:00am 10.5 6.0 6.1 74 2.0 SW 19 28 10 15 1019.2 1019.1 0.4
22/07:30am 9.8 5.7 6.0 77 1.8 SW 17 22 9 12 1018.8 1018.7 0.4
22/07:00am 8.9 5.9 6.0 82 1.3 SW 11 17 6 9 1018.2 1018.1 0.4

Other Formats:

Comma delimited format used in spreadsheet applications
http://www.bom.gov.au/fwo/IDN60801/IDN60801.95695.axf

JavaScript Object Notation format (JSON) in row-major order
http://www.bom.gov.au/fwo/IDN60801/IDN60801.95695.json